Wetterdaten: aktuell Donnerstag, 29.09.2022 10:00
Datum Zeit Temp. A. Feuchte A. Luftdruck Regen Wind Richtung Richtung Taupunkt Windchill Windben
29.09.2022 10:00 8,3 C 94 % 1001,9 hPa 0,0 l/m 0,0 km/h (0 Bft) SO 126 7,4 C 8,3 C 0,0 km/h (0 Bft)
29.09.2022 09:55 8,2 C 94 % 1001,8 hPa 0,0 l/m 0,0 km/h (0 Bft) SO 126 7,3 C 8,2 C 0,0 km/h (0 Bft)
29.09.2022 09:50 8,1 C 94 % 1001,8 hPa 0,0 l/m 0,0 km/h (0 Bft) SO 126 7,2 C 8,1 C 0,0 km/h (0 Bft)
29.09.2022 09:45 8,1 C 94 % 1001,8 hPa 0,0 l/m 0,0 km/h (0 Bft) SO 126 7,2 C 8,1 C 0,0 km/h (0 Bft)
29.09.2022 09:40 7,9 C 95 % 1001,8 hPa 0,0 l/m 0,0 km/h (0 Bft) O-SO 108 7,1 C 7,9 C 0,0 km/h (0 Bft)
29.09.2022 09:35 7,8 C 95 % 1001,7 hPa 0,0 l/m 0,0 km/h (0 Bft) O-SO 107 7,0 C 7,8 C 0,0 km/h (0 Bft)
29.09.2022 09:30 7,6 C 95 % 1001,6 hPa 0,0 l/m 0,0 km/h (0 Bft) O-SO 107 6,9 C 7,6 C 0,0 km/h (0 Bft)
29.09.2022 09:25 7,4 C 95 % 1001,5 hPa 0,0 l/m 0,0 km/h (0 Bft) O-SO 108 6,7 C 7,4 C 0,0 km/h (0 Bft)
29.09.2022 09:20 7,2 C 96 % 1001,5 hPa 0,0 l/m 2,3 km/h (1 Bft) O-SO 106 6,6 C 7,2 C 6,4 km/h (2 Bft)
29.09.2022 09:15 7,1 C 96 % 1001,5 hPa 0,0 l/m 1,8 km/h (1 Bft) O-SO 102 6,5 C 7,1 C 6,4 km/h (2 Bft)
29.09.2022 09:10 6,9 C 96 % 1001,5 hPa 0,0 l/m 3,0 km/h (1 Bft) O 101 6,3 C 6,9 C 9,7 km/h (2 Bft)
29.09.2022 09:05 6,8 C 96 % 1001,5 hPa 0,0 l/m 3,5 km/h (1 Bft) O-SO 114 6,2 C 6,8 C 6,4 km/h (2 Bft)
29.09.2022 09:00 6,6 C 97 % 1001,4 hPa 0,0 l/m 2,0 km/h (1 Bft) O-SO 107 6,2 C 6,6 C 6,4 km/h (2 Bft)
29.09.2022 08:55 6,5 C 96 % 1001,4 hPa 0,0 l/m 1,3 km/h (1 Bft) O-SO 110 5,9 C 6,5 C 6,4 km/h (2 Bft)
29.09.2022 08:50 6,4 C 97 % 1001,4 hPa 0,0 l/m 2,1 km/h (1 Bft) O-SO 107 6,0 C 6,4 C 9,7 km/h (2 Bft)
29.09.2022 08:45 6,3 C 96 % 1001,5 hPa 0,0 l/m 3,6 km/h (1 Bft) O-SO 108 5,7 C 6,3 C 9,7 km/h (2 Bft)
29.09.2022 08:40 6,2 C 97 % 1001,4 hPa 0,0 l/m 3,0 km/h (1 Bft) O-SO 114 5,8 C 6,2 C 9,7 km/h (2 Bft)
29.09.2022 08:35 6,2 C 97 % 1001,5 hPa 0,0 l/m 2,7 km/h (1 Bft) O-SO 105 5,8 C 6,2 C 6,4 km/h (2 Bft)
29.09.2022 08:30 6,1 C 97 % 1001,5 hPa 0,0 l/m 6,4 km/h (2 Bft) O-SO 104 5,7 C 4,9 C 12,9 km/h (3 Bft)
29.09.2022 08:25 6,0 C 97 % 1001,6 hPa 0,0 l/m 2,7 km/h (1 Bft) O-SO 103 5,6 C 6,0 C 9,7 km/h (2 Bft)
29.09.2022 08:20 5,8 C 97 % 1001,6 hPa 0,0 l/m 1,2 km/h (1 Bft) O-SO 113 5,4 C 5,8 C 4,8 km/h (1 Bft)
29.09.2022 08:15 5,7 C 97 % 1001,5 hPa 0,0 l/m 0,1 km/h (0 Bft) O-SO 116 5,3 C 5,7 C 3,2 km/h (1 Bft)
29.09.2022 08:10 5,7 C 97 % 1001,5 hPa 0,0 l/m 0,1 km/h (0 Bft) O-SO 117 5,3 C 5,7 C 3,2 km/h (1 Bft)
29.09.2022 08:05 5,6 C 96 % 1001,5 hPa 0,0 l/m 0,2 km/h (0 Bft) O-SO 117 5,0 C 5,6 C 3,2 km/h (1 Bft)
29.09.2022 08:00 5,5 C 96 % 1001,5 hPa 0,0 l/m 0,0 km/h (0 Bft) O-SO 120 4,9 C 5,5 C 1,6 km/h (1 Bft)
29.09.2022 07:55 5,5 C 96 % 1001,6 hPa 0,0 l/m 0,0 km/h (0 Bft) O-SO 121 4,9 C 5,5 C 0,0 km/h (0 Bft)
29.09.2022 07:50 5,5 C 96 % 1001,6 hPa 0,0 l/m 0,0 km/h (0 Bft) O-SO 121 4,9 C 5,5 C 0,0 km/h (0 Bft)
29.09.2022 07:45 5,5 C 96 % 1001,6 hPa 0,0 l/m 0,0 km/h (0 Bft) O-SO 122 4,9 C 5,5 C 0,0 km/h (0 Bft)
29.09.2022 07:40 5,4 C 96 % 1001,5 hPa 0,0 l/m 0,0 km/h (0 Bft) O-SO 122 4,8 C 5,4 C 0,0 km/h (0 Bft)
29.09.2022 07:35 5,4 C 96 % 1001,5 hPa 0,0 l/m 0,0 km/h (0 Bft) O-SO 122 4,8 C 5,4 C 0,0 km/h (0 Bft)
29.09.2022 07:30 5,3 C 96 % 1001,4 hPa 0,0 l/m 0,0 km/h (0 Bft) O-SO 122 4,7 C 5,3 C 0,0 km/h (0 Bft)
29.09.2022 07:25 5,3 C 95 % 1001,5 hPa 0,0 l/m 0,0 km/h (0 Bft) O-SO 122 4,6 C 5,3 C 0,0 km/h (0 Bft)
29.09.2022 07:20 5,4 C 95 % 1001,5 hPa 0,0 l/m 0,0 km/h (0 Bft) O-SO 122 4,7 C 5,4 C 0,0 km/h (0 Bft)
29.09.2022 07:15 5,4 C 96 % 1001,4 hPa 0,0 l/m 0,0 km/h (0 Bft) O-SO 122 4,8 C 5,4 C 0,0 km/h (0 Bft)
29.09.2022 07:10 5,5 C 96 % 1001,4 hPa 0,0 l/m 0,0 km/h (0 Bft) O-SO 122 4,9 C 5,5 C 0,0 km/h (0 Bft)
29.09.2022 07:05 5,5 C 95 % 1001,5 hPa 0,0 l/m 0,0 km/h (0 Bft) O-SO 122 4,8 C 5,5 C 0,0 km/h (0 Bft)
29.09.2022 07:00 5,6 C 95 % 1001,4 hPa 0,0 l/m 0,0 km/h (0 Bft) O-SO 123 4,9 C 5,6 C 0,0 km/h (0 Bft)
29.09.2022 06:55 5,7 C 95 % 1001,3 hPa 0,0 l/m 0,0 km/h (0 Bft) O-SO 123 5,0 C 5,7 C 0,0 km/h (0 Bft)
29.09.2022 06:50 5,7 C 96 % 1001,3 hPa 0,0 l/m 0,0 km/h (0 Bft) O-SO 122 5,1 C 5,7 C 0,0 km/h (0 Bft)
29.09.2022 06:45 5,7 C 96 % 1001,3 hPa 0,0 l/m 0,0 km/h (0 Bft) O-SO 123 5,1 C 5,7 C 0,0 km/h (0 Bft)
29.09.2022 06:40 5,7 C 96 % 1001,3 hPa 0,0 l/m 0,5 km/h (0 Bft) O-SO 123 5,1 C 5,7 C 3,2 km/h (1 Bft)
29.09.2022 06:35 5,7 C 95 % 1001,3 hPa 0,0 l/m 0,0 km/h (0 Bft) SO 126 5,0 C 5,7 C 1,6 km/h (1 Bft)
29.09.2022 06:30 5,8 C 95 % 1001,3 hPa 0,0 l/m 0,0 km/h (0 Bft) SO 127 5,1 C 5,8 C 0,0 km/h (0 Bft)
29.09.2022 06:25 5,8 C 95 % 1001,3 hPa 0,0 l/m 0,0 km/h (0 Bft) SO 127 5,1 C 5,8 C 0,0 km/h (0 Bft)
29.09.2022 06:20 5,9 C 95 % 1001,3 hPa 0,0 l/m 0,0 km/h (0 Bft) SO 127 5,2 C 5,9 C 0,0 km/h (0 Bft)
29.09.2022 06:15 5,9 C 95 % 1001,3 hPa 0,0 l/m 0,0 km/h (0 Bft) SO 127 5,2 C 5,9 C 0,0 km/h (0 Bft)
29.09.2022 06:10 5,9 C 95 % 1001,3 hPa 0,0 l/m 0,0 km/h (0 Bft) SO 127 5,2 C 5,9 C 0,0 km/h (0 Bft)
29.09.2022 06:05 6,0 C 95 % 1001,3 hPa 0,0 l/m 0,0 km/h (0 Bft) SO 127 5,3 C 6,0 C 0,0 km/h (0 Bft)
29.09.2022 06:00 6,1 C 95 % 1001,3 hPa 0,0 l/m 0,0 km/h (0 Bft) SO 127 5,4 C 6,1 C 0,0 km/h (0 Bft)
29.09.2022 05:55 6,1 C 95 % 1001,2 hPa 0,0 l/m 0,0 km/h (0 Bft) SO 127 5,4 C 6,1 C 0,0 km/h (0 Bft)
29.09.2022 05:50 6,1 C 95 % 1001,2 hPa 0,0 l/m 0,0 km/h (0 Bft) SO 127 5,4 C 6,1 C 0,0 km/h (0 Bft)
29.09.2022 05:45 6,1 C 95 % 1001,2 hPa 0,0 l/m 0,0 km/h (0 Bft) SO 127 5,4 C 6,1 C 0,0 km/h (0 Bft)
29.09.2022 05:40 6,2 C 95 % 1001,1 hPa 0,0 l/m 0,0 km/h (0 Bft) SO 127 5,5 C 6,2 C 0,0 km/h (0 Bft)
29.09.2022 05:35 6,2 C 95 % 1001,1 hPa 0,0 l/m 0,0 km/h (0 Bft) SO 127 5,5 C 6,2 C 0,0 km/h (0 Bft)
29.09.2022 05:30 6,2 C 95 % 1001,1 hPa 0,0 l/m 0,0 km/h (0 Bft) SO 127 5,5 C 6,2 C 0,0 km/h (0 Bft)
29.09.2022 05:25 6,2 C 95 % 1001,1 hPa 0,0 l/m 0,0 km/h (0 Bft) SO 127 5,5 C 6,2 C 0,0 km/h (0 Bft)
29.09.2022 05:20 6,2 C 95 % 1001,2 hPa 0,0 l/m 0,0 km/h (0 Bft) SO 127 5,5 C 6,2 C 0,0 km/h (0 Bft)
29.09.2022 05:15 6,3 C 95 % 1001,2 hPa 0,0 l/m 0,0 km/h (0 Bft) SO 127 5,6 C 6,3 C 0,0 km/h (0 Bft)
29.09.2022 05:10 6,3 C 95 % 1001,2 hPa 0,0 l/m 0,0 km/h (0 Bft) SO 127 5,6 C 6,3 C 0,0 km/h (0 Bft)
29.09.2022 05:05 6,3 C 95 % 1001,2 hPa 0,0 l/m 0,0 km/h (0 Bft) SO 127 5,6 C 6,3 C 0,0 km/h (0 Bft)
29.09.2022 05:00 6,3 C 95 % 1001,2 hPa 0,0 l/m 0,0 km/h (0 Bft) SO 127 5,6 C 6,3 C 0,0 km/h (0 Bft)
29.09.2022 04:55 6,3 C 95 % 1001,2 hPa 0,0 l/m 0,0 km/h (0 Bft) SO 127 5,6 C 6,3 C 1,6 km/h (1 Bft)
29.09.2022 04:50 6,3 C 95 % 1001,0 hPa 0,0 l/m 0,0 km/h (0 Bft) SO 127 5,6 C 6,3 C 0,0 km/h (0 Bft)
29.09.2022 04:45 6,3 C 95 % 1001,0 hPa 0,0 l/m 0,0 km/h (0 Bft) SO 127 5,6 C 6,3 C 0,0 km/h (0 Bft)
29.09.2022 04:40 6,3 C 95 % 1000,9 hPa 0,0 l/m 0,0 km/h (0 Bft) SO 128 5,6 C 6,3 C 0,0 km/h (0 Bft)
29.09.2022 04:35 6,3 C 95 % 1001,0 hPa 0,0 l/m 0,0 km/h (0 Bft) SO 128 5,6 C 6,3 C 0,0 km/h (0 Bft)
29.09.2022 04:30 6,3 C 95 % 1000,9 hPa 0,0 l/m 0,0 km/h (0 Bft) SO 128 5,6 C 6,3 C 0,0 km/h (0 Bft)
29.09.2022 04:25 6,4 C 95 % 1000,9 hPa 0,0 l/m 0,0 km/h (0 Bft) SO 128 5,7 C 6,4 C 0,0 km/h (0 Bft)
29.09.2022 04:20 6,4 C 95 % 1000,8 hPa 0,0 l/m 0,0 km/h (0 Bft) SO 128 5,7 C 6,4 C 0,0 km/h (0 Bft)
29.09.2022 04:15 6,4 C 95 % 1000,8 hPa 0,0 l/m 0,0 km/h (0 Bft) SO 128 5,7 C 6,4 C 0,0 km/h (0 Bft)
29.09.2022 04:10 6,4 C 95 % 1000,7 hPa 0,0 l/m 0,0 km/h (0 Bft) SO 129 5,7 C 6,4 C 0,0 km/h (0 Bft)
29.09.2022 04:05 6,4 C 95 % 1000,7 hPa 0,0 l/m 0,1 km/h (0 Bft) SO 129 5,7 C 6,4 C 1,6 km/h (1 Bft)
29.09.2022 04:00 6,4 C 95 % 1000,8 hPa 0,0 l/m 0,2 km/h (0 Bft) SO 130 5,7 C 6,4 C 3,2 km/h (1 Bft)
29.09.2022 03:55 6,4 C 95 % 1000,8 hPa 0,0 l/m 0,0 km/h (0 Bft) SO 131 5,7 C 6,4 C 0,0 km/h (0 Bft)
29.09.2022 03:50 6,4 C 95 % 1000,8 hPa 0,0 l/m 0,0 km/h (0 Bft) SO 132 5,7 C 6,4 C 0,0 km/h (0 Bft)
29.09.2022 03:45 6,4 C 95 % 1000,8 hPa 0,0 l/m 0,0 km/h (0 Bft) SO 132 5,7 C 6,4 C 0,0 km/h (0 Bft)
29.09.2022 03:40 6,4 C 95 % 1000,8 hPa 0,0 l/m 0,0 km/h (0 Bft) SO 133 5,7 C 6,4 C 0,0 km/h (0 Bft)
29.09.2022 03:35 6,5 C 96 % 1000,7 hPa 0,0 l/m 0,2 km/h (0 Bft) SO 133 5,9 C 6,5 C 3,2 km/h (1 Bft)
29.09.2022 03:30 6,4 C 96 % 1000,7 hPa 0,0 l/m 0,1 km/h (0 Bft) SO 134 5,8 C 6,4 C 3,2 km/h (1 Bft)
29.09.2022 03:25 6,4 C 96 % 1000,7 hPa 0,0 l/m 0,0 km/h (0 Bft) SO 135 5,8 C 6,4 C 0,0 km/h (0 Bft)
29.09.2022 03:20 6,4 C 96 % 1000,7 hPa 0,0 l/m 0,0 km/h (0 Bft) SO 136 5,8 C 6,4 C 0,0 km/h (0 Bft)
29.09.2022 03:15 6,4 C 96 % 1000,7 hPa 0,0 l/m 0,0 km/h (0 Bft) SO 136 5,8 C 6,4 C 0,0 km/h (0 Bft)
29.09.2022 03:10 6,3 C 96 % 1000,7 hPa 0,0 l/m 0,0 km/h (0 Bft) SO 137 5,7 C 6,3 C 0,0 km/h (0 Bft)
29.09.2022 03:05 6,3 C 96 % 1000,7 hPa 0,0 l/m 0,0 km/h (0 Bft) SO 138 5,7 C 6,3 C 0,0 km/h (0 Bft)
29.09.2022 03:00 6,3 C 96 % 1000,7 hPa 0,0 l/m 0,0 km/h (0 Bft) SO 138 5,7 C 6,3 C 0,0 km/h (0 Bft)
29.09.2022 02:55 6,2 C 96 % 1000,7 hPa 0,0 l/m 0,1 km/h (0 Bft) SO 139 5,6 C 6,2 C 1,6 km/h (1 Bft)
29.09.2022 02:50 6,2 C 96 % 1000,7 hPa 0,0 l/m 0,0 km/h (0 Bft) SO 140 5,6 C 6,2 C 0,0 km/h (0 Bft)
29.09.2022 02:45 6,1 C 95 % 1000,7 hPa 0,0 l/m 0,0 km/h (0 Bft) SO 142 5,4 C 6,1 C 0,0 km/h (0 Bft)
29.09.2022 02:40 6,2 C 95 % 1000,8 hPa 0,0 l/m 0,0 km/h (0 Bft) SO 142 5,5 C 6,2 C 0,0 km/h (0 Bft)
29.09.2022 02:35 6,2 C 95 % 1000,8 hPa 0,0 l/m 0,0 km/h (0 Bft) SO 142 5,5 C 6,2 C 0,0 km/h (0 Bft)
29.09.2022 02:30 6,3 C 95 % 1000,8 hPa 0,0 l/m 0,0 km/h (0 Bft) SO 142 5,6 C 6,3 C 0,0 km/h (0 Bft)
29.09.2022 02:25 6,4 C 95 % 1000,8 hPa 0,0 l/m 0,0 km/h (0 Bft) SO 142 5,7 C 6,4 C 0,0 km/h (0 Bft)
29.09.2022 02:20 6,6 C 95 % 1000,8 hPa 0,0 l/m 0,0 km/h (0 Bft) SO 142 5,9 C 6,6 C 0,0 km/h (0 Bft)
29.09.2022 02:15 6,6 C 95 % 1000,7 hPa 0,0 l/m 0,0 km/h (0 Bft) SO 142 5,9 C 6,6 C 0,0 km/h (0 Bft)
29.09.2022 02:10 6,7 C 95 % 1000,7 hPa 0,0 l/m 0,0 km/h (0 Bft) SO 142 6,0 C 6,7 C 0,0 km/h (0 Bft)
29.09.2022 02:05 6,7 C 95 % 1000,6 hPa 0,0 l/m 0,0 km/h (0 Bft) SO 142 6,0 C 6,7 C 0,0 km/h (0 Bft)
29.09.2022 02:00 6,7 C 96 % 1000,7 hPa 0,0 l/m 0,4 km/h (0 Bft) SO 143 6,1 C 6,7 C 3,2 km/h (1 Bft)
29.09.2022 01:55 6,7 C 96 % 1000,7 hPa 0,0 l/m 0,0 km/h (0 Bft) SO 144 6,1 C 6,7 C 0,0 km/h (0 Bft)
29.09.2022 01:50 6,7 C 95 % 1000,6 hPa 0,0 l/m 0,0 km/h (0 Bft) SO 144 6,0 C 6,7 C 0,0 km/h (0 Bft)
29.09.2022 01:45 6,6 C 95 % 1000,7 hPa 0,0 l/m 0,0 km/h (0 Bft) SO 144 5,9 C 6,6 C 0,0 km/h (0 Bft)
29.09.2022 01:40 6,6 C 95 % 1000,7 hPa 0,0 l/m 0,0 km/h (0 Bft) W-SW 251 5,9 C 6,6 C 0,0 km/h (0 Bft)
29.09.2022 01:35 6,6 C 95 % 1000,7 hPa 0,0 l/m 0,0 km/h (0 Bft) W-SW 252 5,9 C 6,6 C 0,0 km/h (0 Bft)
29.09.2022 01:30 6,6 C 95 % 1000,7 hPa 0,0 l/m 0,0 km/h (0 Bft) W-SW 252 5,9 C 6,6 C 0,0 km/h (0 Bft)
29.09.2022 01:25 6,6 C 95 % 1000,7 hPa 0,0 l/m 0,0 km/h (0 Bft) W-SW 252 5,9 C 6,6 C 0,0 km/h (0 Bft)
29.09.2022 01:20 6,7 C 95 % 1000,7 hPa 0,0 l/m 0,0 km/h (0 Bft) W-SW 252 6,0 C 6,7 C 0,0 km/h (0 Bft)
29.09.2022 01:15 6,7 C 95 % 1000,7 hPa 0,0 l/m 0,0 km/h (0 Bft) W-SW 252 6,0 C 6,7 C 0,0 km/h (0 Bft)
29.09.2022 01:10 6,7 C 95 % 1000,7 hPa 0,0 l/m 0,0 km/h (0 Bft) W-SW 252 6,0 C 6,7 C 0,0 km/h (0 Bft)
29.09.2022 01:05 6,7 C 95 % 1000,7 hPa 0,0 l/m 0,0 km/h (0 Bft) W-SW 252 6,0 C 6,7 C 0,0 km/h (0 Bft)
29.09.2022 01:00 6,8 C 95 % 1000,7 hPa 0,0 l/m 0,0 km/h (0 Bft) W-SW 252 6,1 C 6,8 C 0,0 km/h (0 Bft)
29.09.2022 00:55 6,9 C 95 % 1000,6 hPa 0,0 l/m 0,0 km/h (0 Bft) W-SW 252 6,2 C 6,9 C 0,0 km/h (0 Bft)
29.09.2022 00:50 6,9 C 95 % 1000,7 hPa 0,0 l/m 0,0 km/h (0 Bft) W-SW 252 6,2 C 6,9 C 0,0 km/h (0 Bft)
29.09.2022 00:45 6,9 C 95 % 1000,7 hPa 0,0 l/m 0,0 km/h (0 Bft) W-SW 252 6,2 C 6,9 C 0,0 km/h (0 Bft)
29.09.2022 00:40 7,0 C 95 % 1000,7 hPa 0,0 l/m 0,0 km/h (0 Bft) W-SW 252 6,3 C 7,0 C 0,0 km/h (0 Bft)
29.09.2022 00:35 7,0 C 95 % 1000,7 hPa 0,0 l/m 0,0 km/h (0 Bft) W-SW 252 6,3 C 7,0 C 0,0 km/h (0 Bft)
29.09.2022 00:30 7,0 C 95 % 1000,7 hPa 0,0 l/m 0,0 km/h (0 Bft) W-SW 252 6,3 C 7,0 C 0,0 km/h (0 Bft)
29.09.2022 00:25 7,1 C 95 % 1000,8 hPa 0,0 l/m 0,0 km/h (0 Bft) W-SW 252 6,4 C 7,1 C 0,0 km/h (0 Bft)
29.09.2022 00:20 7,1 C 94 % 1000,7 hPa 0,0 l/m 0,0 km/h (0 Bft) W-SW 252 6,2 C 7,1 C 0,0 km/h (0 Bft)
29.09.2022 00:15 7,1 C 94 % 1000,8 hPa 0,0 l/m 0,0 km/h (0 Bft) W-SW 252 6,2 C 7,1 C 0,0 km/h (0 Bft)
29.09.2022 00:10 7,1 C 94 % 1000,7 hPa 0,0 l/m 0,0 km/h (0 Bft) W-SW 252 6,2 C 7,1 C 0,0 km/h (0 Bft)
29.09.2022 00:05 7,2 C 94 % 1000,7 hPa 0,0 l/m 0,0 km/h (0 Bft) W-SW 252 6,3 C 7,2 C 0,0 km/h (0 Bft)
29.09.2022 00:00 7,2 C 94 % 1000,7 hPa 0,0 l/m 0,0 km/h (0 Bft) W-SW 252 6,3 C 7,2 C 0,0 km/h (0 Bft)
28.09.2022 23:55 7,2 C 94 % 1000,7 hPa 0,0 l/m 0,0 km/h (0 Bft) W-SW 252 6,3 C 7,2 C 0,0 km/h (0 Bft)
28.09.2022 23:50 7,2 C 94 % 1000,7 hPa 0,0 l/m 0,0 km/h (0 Bft) W-SW 252 6,3 C 7,2 C 0,0 km/h (0 Bft)
28.09.2022 23:45 7,2 C 94 % 1000,7 hPa 0,0 l/m 0,0 km/h (0 Bft) W-SW 252 6,3 C 7,2 C 0,0 km/h (0 Bft)
28.09.2022 23:40 7,3 C 94 % 1000,7 hPa 0,0 l/m 0,0 km/h (0 Bft) W-SW 252 6,4 C 7,3 C 0,0 km/h (0 Bft)
28.09.2022 23:35 7,3 C 94 % 1000,7 hPa 0,0 l/m 0,0 km/h (0 Bft) W-SW 252 6,4 C 7,3 C 0,0 km/h (0 Bft)
28.09.2022 23:30 7,3 C 94 % 1000,7 hPa 0,0 l/m 0,0 km/h (0 Bft) W-SW 252 6,4 C 7,3 C 0,0 km/h (0 Bft)
28.09.2022 23:25 7,3 C 94 % 1000,7 hPa 0,0 l/m 0,0 km/h (0 Bft) W-SW 252 6,4 C 7,3 C 0,0 km/h (0 Bft)
28.09.2022 23:20 7,3 C 94 % 1000,7 hPa 0,0 l/m 0,0 km/h (0 Bft) W-SW 252 6,4 C 7,3 C 0,0 km/h (0 Bft)
28.09.2022 23:15 7,3 C 94 % 1000,6 hPa 0,0 l/m 0,0 km/h (0 Bft) W-SW 252 6,4 C 7,3 C 0,0 km/h (0 Bft)
28.09.2022 23:10 7,3 C 94 % 1000,6 hPa 0,0 l/m 0,0 km/h (0 Bft) W-SW 252 6,4 C 7,3 C 0,0 km/h (0 Bft)
28.09.2022 23:05 7,3 C 94 % 1000,6 hPa 0,0 l/m 0,0 km/h (0 Bft) W-SW 252 6,4 C 7,3 C 0,0 km/h (0 Bft)
28.09.2022 23:00 7,3 C 94 % 1000,5 hPa 0,0 l/m 0,0 km/h (0 Bft) W-SW 252 6,4 C 7,3 C 0,0 km/h (0 Bft)
28.09.2022 22:55 7,4 C 93 % 1000,5 hPa 0,0 l/m 0,0 km/h (0 Bft) W-SW 252 6,3 C 7,4 C 0,0 km/h (0 Bft)
28.09.2022 22:50 7,4 C 93 % 1000,5 hPa 0,0 l/m 0,0 km/h (0 Bft) W-SW 252 6,3 C 7,4 C 0,0 km/h (0 Bft)
28.09.2022 22:45 7,4 C 93 % 1000,4 hPa 0,0 l/m 0,0 km/h (0 Bft) W-SW 252 6,3 C 7,4 C 0,0 km/h (0 Bft)
28.09.2022 22:40 7,5 C 93 % 1000,3 hPa 0,0 l/m 0,0 km/h (0 Bft) W-SW 252 6,4 C 7,5 C 0,0 km/h (0 Bft)
28.09.2022 22:35 7,6 C 92 % 1000,3 hPa 0,0 l/m 0,0 km/h (0 Bft) W-SW 252 6,4 C 7,6 C 0,0 km/h (0 Bft)
28.09.2022 22:30 7,7 C 93 % 1000,4 hPa 0,0 l/m 0,0 km/h (0 Bft) W-SW 252 6,6 C 7,7 C 0,0 km/h (0 Bft)
28.09.2022 22:25 7,7 C 93 % 1000,4 hPa 0,0 l/m 0,0 km/h (0 Bft) W-SW 252 6,6 C 7,7 C 0,0 km/h (0 Bft)
28.09.2022 22:20 7,7 C 93 % 1000,3 hPa 0,0 l/m 0,0 km/h (0 Bft) W-SW 252 6,6 C 7,7 C 0,0 km/h (0 Bft)
28.09.2022 22:15 7,7 C 93 % 1000,3 hPa 0,0 l/m 0,0 km/h (0 Bft) W-SW 252 6,6 C 7,7 C 0,0 km/h (0 Bft)
28.09.2022 22:10 7,8 C 93 % 1000,2 hPa 0,0 l/m 0,0 km/h (0 Bft) W-SW 252 6,7 C 7,8 C 0,0 km/h (0 Bft)
28.09.2022 22:05 7,8 C 93 % 1000,2 hPa 0,0 l/m 0,0 km/h (0 Bft) W-SW 252 6,7 C 7,8 C 0,0 km/h (0 Bft)
28.09.2022 22:00 7,8 C 93 % 1000,2 hPa 0,0 l/m 0,0 km/h (0 Bft) W-SW 252 6,7 C 7,8 C 0,0 km/h (0 Bft)
28.09.2022 21:55 7,8 C 93 % 1000,1 hPa 0,0 l/m 0,0 km/h (0 Bft) W-SW 252 6,7 C 7,8 C 0,0 km/h (0 Bft)
28.09.2022 21:50 7,8 C 93 % 1000,1 hPa 0,0 l/m 0,0 km/h (0 Bft) W-SW 252 6,7 C 7,8 C 0,0 km/h (0 Bft)
28.09.2022 21:45 7,8 C 93 % 1000,0 hPa 0,0 l/m 0,0 km/h (0 Bft) W-SW 252 6,7 C 7,8 C 0,0 km/h (0 Bft)
28.09.2022 21:40 7,8 C 93 % 999,9 hPa 0,0 l/m 0,0 km/h (0 Bft) W-SW 252 6,7 C 7,8 C 0,0 km/h (0 Bft)
28.09.2022 21:35 7,8 C 93 % 999,9 hPa 0,0 l/m 0,0 km/h (0 Bft) W-SW 252 6,7 C 7,8 C 0,0 km/h (0 Bft)
28.09.2022 21:30 7,8 C 93 % 999,8 hPa 0,0 l/m 0,0 km/h (0 Bft) W-SW 252 6,7 C 7,8 C 0,0 km/h (0 Bft)
28.09.2022 21:25 7,8 C 93 % 999,8 hPa 0,0 l/m 0,0 km/h (0 Bft) W-SW 252 6,7 C 7,8 C 0,0 km/h (0 Bft)
28.09.2022 21:20 7,8 C 93 % 999,8 hPa 0,0 l/m 0,0 km/h (0 Bft) W-SW 252 6,7 C 7,8 C 0,0 km/h (0 Bft)
28.09.2022 21:15 7,8 C 93 % 999,7 hPa 0,0 l/m 0,0 km/h (0 Bft) W-SW 252 6,7 C 7,8 C 0,0 km/h (0 Bft)
28.09.2022 21:10 7,8 C 93 % 999,7 hPa 0,0 l/m 0,0 km/h (0 Bft) W-SW 252 6,7 C 7,8 C 0,0 km/h (0 Bft)
28.09.2022 21:05 7,8 C 93 % 999,6 hPa 0,0 l/m 0,0 km/h (0 Bft) W-SW 252 6,7 C 7,8 C 0,0 km/h (0 Bft)
28.09.2022 21:00 7,8 C 93 % 999,7 hPa 0,0 l/m 0,0 km/h (0 Bft) W-SW 252 6,7 C 7,8 C 0,0 km/h (0 Bft)
28.09.2022 20:55 7,8 C 93 % 999,6 hPa 0,0 l/m 0,0 km/h (0 Bft) W-SW 252 6,7 C 7,8 C 0,0 km/h (0 Bft)
28.09.2022 20:50 7,8 C 93 % 999,5 hPa 0,0 l/m 0,0 km/h (0 Bft) W-SW 252 6,7 C 7,8 C 0,0 km/h (0 Bft)
28.09.2022 20:45 7,8 C 93 % 999,6 hPa 0,0 l/m 0,0 km/h (0 Bft) W-SW 250 6,7 C 7,8 C 0,0 km/h (0 Bft)
28.09.2022 20:40 7,8 C 93 % 999,5 hPa 0,0 l/m 0,0 km/h (0 Bft) W-SW 250 6,7 C 7,8 C 0,0 km/h (0 Bft)
28.09.2022 20:35 7,8 C 93 % 999,5 hPa 0,0 l/m 0,0 km/h (0 Bft) W-SW 250 6,7 C 7,8 C 0,0 km/h (0 Bft)
28.09.2022 20:30 7,8 C 93 % 999,4 hPa 0,0 l/m 0,0 km/h (0 Bft) W-SW 250 6,7 C 7,8 C 0,0 km/h (0 Bft)
28.09.2022 20:25 7,8 C 93 % 999,3 hPa 0,0 l/m 0,0 km/h (0 Bft) W-SW 250 6,7 C 7,8 C 0,0 km/h (0 Bft)
28.09.2022 20:20 7,8 C 92 % 999,3 hPa 0,0 l/m 0,0 km/h (0 Bft) W-SW 250 6,6 C 7,8 C 0,0 km/h (0 Bft)
28.09.2022 20:15 7,9 C 92 % 999,3 hPa 0,0 l/m 0,0 km/h (0 Bft) W-SW 250 6,7 C 7,9 C 0,0 km/h (0 Bft)
28.09.2022 20:10 7,9 C 92 % 999,3 hPa 0,0 l/m 0,0 km/h (0 Bft) W-SW 250 6,7 C 7,9 C 0,0 km/h (0 Bft)
28.09.2022 20:05 8,0 C 92 % 999,3 hPa 0,0 l/m 0,0 km/h (0 Bft) W-SW 250 6,8 C 8,0 C 0,0 km/h (0 Bft)
28.09.2022 20:00 8,0 C 92 % 999,3 hPa 0,0 l/m 0,0 km/h (0 Bft) W-SW 250 6,8 C 8,0 C 0,0 km/h (0 Bft)
28.09.2022 19:55 8,1 C 91 % 999,2 hPa 0,0 l/m 0,0 km/h (0 Bft) W-SW 250 6,7 C 8,1 C 0,0 km/h (0 Bft)
28.09.2022 19:50 8,1 C 91 % 999,2 hPa 0,0 l/m 0,0 km/h (0 Bft) W-SW 250 6,7 C 8,1 C 0,0 km/h (0 Bft)
28.09.2022 19:45 8,1 C 91 % 999,1 hPa 0,0 l/m 0,0 km/h (0 Bft) W-SW 250 6,7 C 8,1 C 0,0 km/h (0 Bft)
28.09.2022 19:40 8,2 C 91 % 999,1 hPa 0,0 l/m 0,0 km/h (0 Bft) W-SW 250 6,8 C 8,2 C 0,0 km/h (0 Bft)
28.09.2022 19:35 8,2 C 90 % 999,0 hPa 0,0 l/m 0,0 km/h (0 Bft) W-SW 250 6,7 C 8,2 C 0,0 km/h (0 Bft)
28.09.2022 19:30 8,2 C 90 % 999,0 hPa 0,0 l/m 0,0 km/h (0 Bft) W-SW 250 6,7 C 8,2 C 0,0 km/h (0 Bft)
28.09.2022 19:25 8,3 C 90 % 998,9 hPa 0,0 l/m 0,0 km/h (0 Bft) W-SW 250 6,8 C 8,3 C 0,0 km/h (0 Bft)
28.09.2022 19:20 8,3 C 90 % 998,9 hPa 0,0 l/m 0,0 km/h (0 Bft) W-SW 250 6,8 C 8,3 C 0,0 km/h (0 Bft)
28.09.2022 19:15 8,4 C 89 % 998,8 hPa 0,0 l/m 0,0 km/h (0 Bft) W-SW 250 6,7 C 8,4 C 0,0 km/h (0 Bft)
28.09.2022 19:10 8,4 C 88 % 998,7 hPa 0,0 l/m 0,0 km/h (0 Bft) W-SW 250 6,5 C 8,4 C 0,0 km/h (0 Bft)
28.09.2022 19:05 8,6 C 88 % 998,8 hPa 0,0 l/m 0,0 km/h (0 Bft) W-SW 250 6,7 C 8,6 C 0,0 km/h (0 Bft)
28.09.2022 19:00 8,7 C 86 % 998,8 hPa 0,0 l/m 0,0 km/h (0 Bft) W-SW 250 6,5 C 8,7 C 0,0 km/h (0 Bft)
28.09.2022 18:55 8,8 C 86 % 998,7 hPa 0,0 l/m 0,0 km/h (0 Bft) W-SW 250 6,6 C 8,8 C 0,0 km/h (0 Bft)
28.09.2022 18:50 8,9 C 86 % 998,6 hPa 0,0 l/m 0,0 km/h (0 Bft) W-SW 250 6,7 C 8,9 C 0,0 km/h (0 Bft)
28.09.2022 18:45 9,0 C 85 % 998,5 hPa 0,0 l/m 0,0 km/h (0 Bft) W-SW 250 6,6 C 9,0 C 0,0 km/h (0 Bft)
28.09.2022 18:40 9,1 C 85 % 998,5 hPa 0,0 l/m 0,0 km/h (0 Bft) W-SW 250 6,7 C 9,1 C 0,0 km/h (0 Bft)
28.09.2022 18:35 9,2 C 84 % 998,5 hPa 0,0 l/m 0,0 km/h (0 Bft) W-SW 250 6,6 C 9,2 C 0,0 km/h (0 Bft)
28.09.2022 18:30 9,3 C 84 % 998,4 hPa 0,0 l/m 0,0 km/h (0 Bft) W-SW 251 6,7 C 9,3 C 0,0 km/h (0 Bft)
28.09.2022 18:25 9,4 C 84 % 998,4 hPa 0,0 l/m 0,1 km/h (0 Bft) W-SW 250 6,8 C 9,4 C 1,6 km/h (1 Bft)
28.09.2022 18:20 9,5 C 83 % 998,4 hPa 0,0 l/m 0,1 km/h (0 Bft) W-SW 244 6,8 C 9,5 C 4,8 km/h (1 Bft)
28.09.2022 18:15 9,6 C 84 % 998,3 hPa 0,0 l/m 0,0 km/h (0 Bft) W-SW 250 7,0 C 9,6 C 3,2 km/h (1 Bft)
28.09.2022 18:10 9,7 C 83 % 998,4 hPa 0,0 l/m 0,0 km/h (0 Bft) W 265 7,0 C 9,7 C 0,0 km/h (0 Bft)
28.09.2022 18:05 9,8 C 82 % 998,4 hPa 0,0 l/m 0,0 km/h (0 Bft) W 271 6,9 C 9,8 C 0,0 km/h (0 Bft)
28.09.2022 18:00 9,8 C 82 % 998,2 hPa 0,0 l/m 0,0 km/h (0 Bft) W 271 6,9 C 9,8 C 0,0 km/h (0 Bft)
28.09.2022 17:55 9,9 C 82 % 998,2 hPa 0,0 l/m 0,3 km/h (0 Bft) W 265 7,0 C 9,9 C 4,8 km/h (1 Bft)
28.09.2022 17:50 9,9 C 82 % 998,2 hPa 0,0 l/m 1,3 km/h (1 Bft) W 277 7,0 C 9,9 C 8,0 km/h (2 Bft)
28.09.2022 17:45 10,0 C 81 % 998,1 hPa 0,0 l/m 0,3 km/h (0 Bft) W-NW 291 6,9 C 10,0 C 3,2 km/h (1 Bft)
28.09.2022 17:40 10,0 C 81 % 998,1 hPa 0,0 l/m 2,0 km/h (1 Bft) W-NW 290 6,9 C 10,0 C 11,3 km/h (2 Bft)
28.09.2022 17:35 10,0 C 82 % 998,1 hPa 0,0 l/m 0,9 km/h (0 Bft) W 265 7,1 C 10,0 C 9,7 km/h (2 Bft)
28.09.2022 17:30 9,9 C 81 % 998,0 hPa 0,0 l/m 2,4 km/h (1 Bft) SW 221 6,8 C 9,9 C 11,3 km/h (2 Bft)
28.09.2022 17:25 9,9 C 81 % 998,0 hPa 0,0 l/m 3,8 km/h (1 Bft) W-SW 247 6,8 C 9,9 C 14,5 km/h (3 Bft)
28.09.2022 17:20 9,9 C 82 % 998,0 hPa 0,0 l/m 2,3 km/h (1 Bft) W-SW 258 7,0 C 9,9 C 6,4 km/h (2 Bft)
28.09.2022 17:15 9,9 C 81 % 998,0 hPa 0,0 l/m 5,2 km/h (1 Bft) W-NW 285 6,8 C 9,6 C 16,1 km/h (3 Bft)
28.09.2022 17:10 9,9 C 82 % 997,9 hPa 0,0 l/m 3,4 km/h (1 Bft) W-NW 283 7,0 C 9,9 C 11,3 km/h (2 Bft)
28.09.2022 17:05 9,8 C 81 % 997,8 hPa 0,0 l/m 6,9 km/h (2 Bft) NW 311 6,7 C 9,0 C 16,1 km/h (3 Bft)
28.09.2022 17:00 9,8 C 82 % 997,8 hPa 0,0 l/m 6,1 km/h (2 Bft) W-SW 244 6,9 C 9,2 C 14,5 km/h (3 Bft)
28.09.2022 16:55 9,9 C 85 % 997,8 hPa 0,0 l/m 2,2 km/h (1 Bft) W-NW 300 7,5 C 9,9 C 12,9 km/h (3 Bft)
28.09.2022 16:50 9,9 C 85 % 997,8 hPa 0,0 l/m 2,1 km/h (1 Bft) W-NW 298 7,5 C 9,9 C 12,9 km/h (3 Bft)
28.09.2022 16:45 10,0 C 84 % 997,7 hPa 0,0 l/m 3,0 km/h (1 Bft) W 277 7,4 C 10,0 C 12,9 km/h (3 Bft)
28.09.2022 16:40 10,1 C 85 % 997,7 hPa 0,0 l/m 1,6 km/h (1 Bft) W-SW 248 7,7 C 10,1 C 6,4 km/h (2 Bft)
28.09.2022 16:35 10,1 C 84 % 997,7 hPa 0,0 l/m 3,1 km/h (1 Bft) W-NW 284 7,5 C 10,1 C 14,5 km/h (3 Bft)
28.09.2022 16:30 10,2 C 84 % 997,5 hPa 0,0 l/m 3,3 km/h (1 Bft) W-NW 294 7,6 C 10,2 C 14,5 km/h (3 Bft)
28.09.2022 16:25 10,1 C 83 % 997,6 hPa 0,0 l/m 4,6 km/h (1 Bft) W-NW 290 7,3 C 10,1 C 16,1 km/h (3 Bft)
28.09.2022 16:20 10,0 C 83 % 997,6 hPa 0,0 l/m 3,6 km/h (1 Bft) W-NW 294 7,2 C 10,0 C 12,9 km/h (3 Bft)
28.09.2022 16:15 10,0 C 82 % 997,6 hPa 0,0 l/m 5,9 km/h (2 Bft) W-SW 238 7,1 C 9,5 C 19,3 km/h (3 Bft)
28.09.2022 16:10 10,1 C 84 % 997,6 hPa 0,0 l/m 2,2 km/h (1 Bft) W 263 7,5 C 10,1 C 11,3 km/h (2 Bft)
28.09.2022 16:05 10,1 C 84 % 997,6 hPa 0,0 l/m 2,3 km/h (1 Bft) W 267 7,5 C 10,1 C 11,3 km/h (2 Bft)
28.09.2022 16:00 10,1 C 85 % 997,5 hPa 0,0 l/m 2,9 km/h (1 Bft) W-NW 294 7,7 C 10,1 C 12,9 km/h (3 Bft)
28.09.2022 15:55 10,1 C 85 % 997,5 hPa 0,0 l/m 2,9 km/h (1 Bft) W-NW 289 7,7 C 10,1 C 9,7 km/h (2 Bft)
28.09.2022 15:50 10,2 C 85 % 997,5 hPa 0,0 l/m 5,3 km/h (1 Bft) W-NW 298 7,8 C 10,2 C 12,9 km/h (3 Bft)
28.09.2022 15:45 10,2 C 87 % 997,7 hPa 0,0 l/m 3,2 km/h (1 Bft) W-NW 292 8,1 C 10,2 C 12,9 km/h (3 Bft)
28.09.2022 15:40 10,2 C 86 % 997,7 hPa 0,0 l/m 4,5 km/h (1 Bft) W-NW 294 8,0 C 10,2 C 16,1 km/h (3 Bft)
28.09.2022 15:35 10,3 C 85 % 997,6 hPa 0,0 l/m 6,2 km/h (2 Bft) SW 227 7,9 C 10,3 C 14,5 km/h (3 Bft)
28.09.2022 15:30 10,3 C 86 % 997,5 hPa 0,0 l/m 6,4 km/h (2 Bft) W-NW 295 8,1 C 10,3 C 14,5 km/h (3 Bft)
28.09.2022 15:25 10,2 C 87 % 997,5 hPa 0,0 l/m 4,3 km/h (1 Bft) NW 326 8,1 C 10,2 C 14,5 km/h (3 Bft)
28.09.2022 15:20 9,9 C 87 % 997,5 hPa 0,0 l/m 7,6 km/h (2 Bft) W-NW 287 7,8 C 9,0 C 17,7 km/h (3 Bft)
28.09.2022 15:15 9,8 C 88 % 997,4 hPa 0,0 l/m 4,2 km/h (1 Bft) W-NW 292 7,9 C 9,8 C 16,1 km/h (3 Bft)
28.09.2022 15:10 9,5 C 88 % 997,5 hPa 0,0 l/m 1,9 km/h (1 Bft) W-NW 286 7,6 C 9,5 C 6,4 km/h (2 Bft)
28.09.2022 15:05 9,4 C 88 % 997,5 hPa 0,0 l/m 3,6 km/h (1 Bft) W-SW 239 7,5 C 9,4 C 12,9 km/h (3 Bft)
28.09.2022 15:00 9,3 C 88 % 997,6 hPa 0,0 l/m 3,9 km/h (1 Bft) W-SW 252 7,4 C 9,3 C 14,5 km/h (3 Bft)
28.09.2022 14:55 9,3 C 88 % 997,5 hPa 0,0 l/m 3,5 km/h (1 Bft) W-SW 244 7,4 C 9,3 C 12,9 km/h (3 Bft)
28.09.2022 14:50 9,2 C 89 % 997,5 hPa 0,0 l/m 2,5 km/h (1 Bft) SW 231 7,5 C 9,2 C 12,9 km/h (3 Bft)
28.09.2022 14:45 9,2 C 89 % 997,5 hPa 0,0 l/m 3,4 km/h (1 Bft) W-SW 250 7,5 C 9,2 C 14,5 km/h (3 Bft)
28.09.2022 14:40 9,1 C 89 % 997,5 hPa 0,0 l/m 2,2 km/h (1 Bft) W-NW 298 7,4 C 9,1 C 9,7 km/h (2 Bft)
28.09.2022 14:35 9,1 C 89 % 997,4 hPa 0,0 l/m 3,2 km/h (1 Bft) W-NW 296 7,4 C 9,1 C 9,7 km/h (2 Bft)
28.09.2022 14:30 9,1 C 88 % 997,5 hPa 0,0 l/m 2,9 km/h (1 Bft) W-NW 289 7,2 C 9,1 C 8,0 km/h (2 Bft)
28.09.2022 14:25 9,2 C 86 % 997,5 hPa 0,0 l/m 3,6 km/h (1 Bft) NW 321 7,0 C 9,2 C 12,9 km/h (3 Bft)
28.09.2022 14:20 9,6 C 84 % 997,5 hPa 0,0 l/m 7,0 km/h (2 Bft) W-NW 296 7,0 C 8,8 C 16,1 km/h (3 Bft)
28.09.2022 14:15 10,0 C 83 % 997,4 hPa 0,0 l/m 6,8 km/h (2 Bft) W-NW 286 7,2 C 9,3 C 16,1 km/h (3 Bft)
28.09.2022 14:10 10,1 C 84 % 997,1 hPa 0,0 l/m 7,5 km/h (2 Bft) W-SW 257 7,5 C 10,1 C 19,3 km/h (3 Bft)
28.09.2022 14:05 10,0 C 84 % 997,2 hPa 0,0 l/m 2,0 km/h (1 Bft) W-SW 250 7,4 C 10,0 C 9,7 km/h (2 Bft)
28.09.2022 14:00 10,0 C 85 % 997,1 hPa 0,0 l/m 4,1 km/h (1 Bft) W 259 7,6 C 10,0 C 17,7 km/h (3 Bft)
28.09.2022 13:55 10,0 C 86 % 997,1 hPa 0,0 l/m 4,2 km/h (1 Bft) NW 318 7,8 C 10,0 C 14,5 km/h (3 Bft)
28.09.2022 13:50 10,1 C 85 % 997,1 hPa 0,0 l/m 3,6 km/h (1 Bft) W-SW 252 7,7 C 10,1 C 14,5 km/h (3 Bft)
28.09.2022 13:45 10,2 C 87 % 997,1 hPa 0,0 l/m 3,2 km/h (1 Bft) W-NW 296 8,1 C 10,2 C 16,1 km/h (3 Bft)
28.09.2022 13:40 10,1 C 88 % 996,9 hPa 0,0 l/m 8,4 km/h (2 Bft) S-SW 211 8,2 C 10,1 C 17,7 km/h (3 Bft)
28.09.2022 13:35 9,8 C 89 % 997,0 hPa 0,0 l/m 5,4 km/h (1 Bft) W 263 8,1 C 9,4 C 22,5 km/h (4 Bft)
28.09.2022 13:30 9,7 C 88 % 997,0 hPa 0,0 l/m 3,5 km/h (1 Bft) W 273 7,8 C 9,7 C 14,5 km/h (3 Bft)
28.09.2022 13:25 9,7 C 86 % 997,0 hPa 0,0 l/m 1,8 km/h (1 Bft) W-SW 254 7,5 C 9,7 C 11,3 km/h (2 Bft)
28.09.2022 13:20 9,8 C 85 % 997,0 hPa 0,0 l/m 2,8 km/h (1 Bft) W-NW 291 7,4 C 9,8 C 14,5 km/h (3 Bft)
28.09.2022 13:15 10,1 C 88 % 997,0 hPa 0,0 l/m 2,7 km/h (1 Bft) W-SW 258 8,2 C 10,1 C 14,5 km/h (3 Bft)
28.09.2022 13:10 10,1 C 89 % 996,9 hPa 0,0 l/m 4,5 km/h (1 Bft) W-SW 252 8,4 C 10,1 C 12,9 km/h (3 Bft)
28.09.2022 13:05 9,9 C 89 % 997,0 hPa 0,0 l/m 4,1 km/h (1 Bft) W-SW 242 8,2 C 9,9 C 11,3 km/h (2 Bft)
28.09.2022 13:00 9,9 C 90 % 997,0 hPa 0,0 l/m 2,2 km/h (1 Bft) W-SW 246 8,3 C 9,9 C 6,4 km/h (2 Bft)
28.09.2022 12:55 9,7 C 92 % 997,0 hPa 0,0 l/m 3,3 km/h (1 Bft) S-SW 201 8,5 C 9,7 C 16,1 km/h (3 Bft)
28.09.2022 12:50 9,4 C 92 % 996,9 hPa 0,0 l/m 4,3 km/h (1 Bft) S-SW 194 8,2 C 9,4 C 12,9 km/h (3 Bft)
28.09.2022 12:45 9,2 C 91 % 996,9 hPa 0,0 l/m 4,4 km/h (1 Bft) SW 232 7,8 C 9,2 C 9,7 km/h (2 Bft)
28.09.2022 12:40 9,1 C 91 % 996,9 hPa 0,0 l/m 6,0 km/h (2 Bft) W-SW 253 7,7 C 8,4 C 16,1 km/h (3 Bft)
28.09.2022 12:35 9,1 C 90 % 996,7 hPa 0,0 l/m 6,5 km/h (2 Bft) W-SW 246 7,5 C 8,3 C 16,1 km/h (3 Bft)
28.09.2022 12:30 9,1 C 90 % 996,7 hPa 0,0 l/m 5,6 km/h (1 Bft) W 267 7,5 C 8,6 C 14,5 km/h (3 Bft)
28.09.2022 12:25 9,1 C 91 % 996,7 hPa 0,0 l/m 5,0 km/h (1 Bft) W-SW 250 7,7 C 8,7 C 19,3 km/h (3 Bft)
28.09.2022 12:20 9,1 C 92 % 996,7 hPa 0,0 l/m 4,3 km/h (1 Bft) W-SW 246 7,9 C 9,1 C 11,3 km/h (2 Bft)
28.09.2022 12:15 9,1 C 92 % 996,7 hPa 0,0 l/m 6,0 km/h (2 Bft) W-SW 250 7,9 C 8,4 C 16,1 km/h (3 Bft)
28.09.2022 12:10 8,9 C 92 % 996,6 hPa 0,0 l/m 4,7 km/h (1 Bft) W-SW 242 7,7 C 8,6 C 12,9 km/h (3 Bft)
28.09.2022 12:05 8,9 C 93 % 996,5 hPa 0,0 l/m 4,6 km/h (1 Bft) W-SW 257 7,8 C 8,6 C 16,1 km/h (3 Bft)
28.09.2022 12:00 8,9 C 94 % 996,5 hPa 0,0 l/m 2,4 km/h (1 Bft) W 264 8,0 C 8,9 C 11,3 km/h (2 Bft)
28.09.2022 11:55 8,7 C 94 % 996,5 hPa 0,0 l/m 4,6 km/h (1 Bft) W 273 7,8 C 8,4 C 20,9 km/h (4 Bft)
28.09.2022 11:50 8,6 C 94 % 996,4 hPa 0,0 l/m 4,0 km/h (1 Bft) SW 229 7,7 C 8,6 C 16,1 km/h (3 Bft)
28.09.2022 11:45 8,5 C 94 % 996,3 hPa 0,0 l/m 5,5 km/h (1 Bft) W 271 7,6 C 7,9 C 20,9 km/h (4 Bft)
28.09.2022 11:40 8,6 C 95 % 996,3 hPa 0,0 l/m 6,8 km/h (2 Bft) W-SW 241 7,8 C 7,6 C 16,1 km/h (3 Bft)
28.09.2022 11:35 8,6 C 96 % 996,3 hPa 0,0 l/m 3,5 km/h (1 Bft) W-SW 242 8,0 C 8,6 C 20,9 km/h (4 Bft)
28.09.2022 11:30 8,4 C 96 % 996,2 hPa 0,0 l/m 5,5 km/h (1 Bft) W 272 7,8 C 7,8 C 16,1 km/h (3 Bft)
28.09.2022 11:25 8,3 C 96 % 996,2 hPa 0,0 l/m 6,1 km/h (2 Bft) W-SW 258 7,7 C 7,5 C 14,5 km/h (3 Bft)
28.09.2022 11:20 8,3 C 96 % 996,0 hPa 0,0 l/m 3,9 km/h (1 Bft) W-SW 254 7,7 C 8,3 C 12,9 km/h (3 Bft)
28.09.2022 11:15 8,2 C 96 % 995,9 hPa 0,0 l/m 4,0 km/h (1 Bft) W-SW 256 7,6 C 8,2 C 17,7 km/h (3 Bft)
28.09.2022 11:10 8,1 C 97 % 995,9 hPa 0,0 l/m 3,6 km/h (1 Bft) W-NW 296 7,7 C 8,1 C 16,1 km/h (3 Bft)
28.09.2022 11:05 8,0 C 96 % 995,9 hPa 0,0 l/m 5,0 km/h (1 Bft) W-SW 247 7,4 C 7,5 C 17,7 km/h (3 Bft)
28.09.2022 11:00 7,9 C 96 % 995,8 hPa 0,0 l/m 3,3 km/h (1 Bft) W 271 7,3 C 7,9 C 11,3 km/h (2 Bft)
_ Min-Zeit 07:25 17:05 11:00 - 18:00 - - 07:25 08:30 18:00
Minimum _ 5,3 C 81 % 995,8 hPa - 0,0 km/h (0 Bft) - - 4,6 C 4,9 C 0,0 km/h (0 Bft)
_ Max-Zeit 15:30 11:10 10:00 11:00 13:40 - - 12:55 15:30 13:35
Maximum _ 10,3 C 97 % 1001,9 hPa 0,0 l/m 8,4 km/h
S-SW (2 Bft)
- - 8,5 C 10,3 C 22,5 km/h
W-SW (4 Bft)
Durchschnitt _ 7,8 C 92 % 999,2 hPa #0,0 l/m 1,5 km/h (1 Bft) W-SW - 6,6 C 7,7 C 5,2 km/h (1 Bft)